DLH249 EDDH-LIPZ
Flight info
| Callsign | DLH249 |
|---|---|
| Flight time | N/A |
| Altitude | 39000 |
| Route | IDEKO7G IDEKO N850 LARBU/N0492F410 N850 XAROL/N0491F400 DCT BOMBI DCT GIGET DCT ABUKA/N0492F410 DCT TEDGO DCT BATUB/N0504F290 M738 ADOSA L612 ALBET |
| Aircraft | A359/H-SDE2E3GHIJ3J4J5LM1ORWXY/LB1D1 |
Departure
| Time | 2026-05-06 16:05 |
|---|---|
| Airport | Hamburg Helmut Schmidt Airport (EDDH) |
Arrival
| Time | N/A |
|---|---|
| Airport | Venice Marco Polo Airport (LIPZ) |
| Time | Latitude | Longitude | Altitude | Speed | Heading |
|---|---|---|---|---|---|
| 2026-05-06 15:45 | 53.62910 | 9.99278 | 45 ft | 0 kts | 242° |
| 2026-05-06 15:56 | 53.62912 | 9.99284 | 47 ft | 2 kts | 242° |
| 2026-05-06 15:56 | 53.62919 | 9.99308 | 47 ft | 3 kts | 242° |
| 2026-05-06 15:56 | 53.62930 | 9.99332 | 46 ft | 3 kts | 204° |
| 2026-05-06 15:56 | 53.62948 | 9.99339 | 46 ft | 3 kts | 166° |
| 2026-05-06 15:57 | 53.62955 | 9.99336 | 44 ft | 0 kts | 149° |
| 2026-05-06 15:57 | 53.62955 | 9.99337 | 44 ft | 1 kts | 149° |
| 2026-05-06 15:58 | 53.62911 | 9.99375 | 44 ft | 10 kts | 152° |
| 2026-05-06 15:58 | 53.62840 | 9.99446 | 47 ft | 13 kts | 148° |
| 2026-05-06 15:58 | 53.62752 | 9.99536 | 46 ft | 16 kts | 149° |
| 2026-05-06 15:58 | 53.62651 | 9.99639 | 47 ft | 16 kts | 128° |
| 2026-05-06 15:59 | 53.62639 | 9.99726 | 48 ft | 0 kts | 85° |
| 2026-05-06 16:03 | 53.62639 | 9.99727 | 53 ft | 0 kts | 85° |
| 2026-05-06 16:04 | 53.62652 | 9.99803 | 47 ft | 10 kts | 66° |
| 2026-05-06 16:04 | 53.62707 | 9.99871 | 49 ft | 10 kts | 9° |
| 2026-05-06 16:04 | 53.62753 | 9.99845 | 51 ft | 0 kts | 332° |
| 2026-05-06 16:05 | 53.62895 | 9.99721 | 47 ft | 62 kts | 333° |
| 2026-05-06 16:05 | 53.63507 | 9.99194 | 47 ft | 133 kts | 333° |
| 2026-05-06 16:05 | 53.64477 | 9.98345 | 300 ft | 172 kts | 335° |
| 2026-05-06 16:05 | 53.65604 | 9.97356 | 776 ft | 193 kts | 336° |
| 2026-05-06 16:06 | 53.66850 | 9.96258 | 1434 ft | 214 kts | 337° |
| 2026-05-06 16:06 | 53.68194 | 9.95089 | 2239 ft | 220 kts | 339° |
| 2026-05-06 16:06 | 53.69539 | 9.93960 | 3402 ft | 214 kts | 339° |
| 2026-05-06 16:06 | 53.70770 | 9.92468 | 4261 ft | 225 kts | 316° |
| 2026-05-06 16:07 | 53.71433 | 9.90011 | 4882 ft | 246 kts | 279° |
| 2026-05-06 16:07 | 53.71193 | 9.87011 | 5327 ft | 269 kts | 252° |
| 2026-05-06 16:07 | 53.70549 | 9.83979 | 6120 ft | 278 kts | 250° |
| 2026-05-06 16:07 | 53.69878 | 9.80899 | 7061 ft | 281 kts | 251° |
| 2026-05-06 16:08 | 53.69219 | 9.77763 | 7987 ft | 284 kts | 251° |
| 2026-05-06 16:08 | 53.68572 | 9.74592 | 9013 ft | 288 kts | 251° |
| 2026-05-06 16:08 | 53.67927 | 9.71369 | 9958 ft | 292 kts | 251° |
| 2026-05-06 16:08 | 53.67268 | 9.68061 | 10681 ft | 306 kts | 250° |
| 2026-05-06 16:09 | 53.66557 | 9.64530 | 11095 ft | 330 kts | 249° |
| 2026-05-06 16:09 | 53.65484 | 9.61043 | 11498 ft | 349 kts | 231° |
| 2026-05-06 16:09 | 53.63631 | 9.58371 | 12179 ft | 355 kts | 206° |
| 2026-05-06 16:09 | 53.61294 | 9.57103 | 13096 ft | 354 kts | 188° |
| 2026-05-06 16:10 | 53.58846 | 9.56566 | 14066 ft | 354 kts | 186° |
| 2026-05-06 16:10 | 53.56379 | 9.56116 | 14839 ft | 359 kts | 186° |
| 2026-05-06 16:10 | 53.53873 | 9.55652 | 15547 ft | 365 kts | 186° |
| 2026-05-06 16:10 | 53.51333 | 9.55169 | 16330 ft | 369 kts | 187° |
| 2026-05-06 16:11 | 53.48759 | 9.54670 | 17087 ft | 374 kts | 187° |
| 2026-05-06 16:11 | 53.46199 | 9.54172 | 17968 ft | 377 kts | 187° |
| 2026-05-06 16:11 | 53.43540 | 9.53652 | 18690 ft | 382 kts | 187° |
| 2026-05-06 16:11 | 53.40918 | 9.53138 | 19400 ft | 387 kts | 187° |
| 2026-05-06 16:12 | 53.38220 | 9.52608 | 20110 ft | 391 kts | 187° |
| 2026-05-06 16:12 | 53.35505 | 9.52076 | 20808 ft | 396 kts | 187° |
| 2026-05-06 16:12 | 53.32754 | 9.51538 | 21523 ft | 400 kts | 187° |
| 2026-05-06 16:12 | 53.29973 | 9.50998 | 22250 ft | 404 kts | 187° |
| 2026-05-06 16:13 | 53.27175 | 9.50450 | 23041 ft | 406 kts | 187° |
| 2026-05-06 16:13 | 53.24335 | 9.49894 | 23622 ft | 412 kts | 187° |
| 2026-05-06 16:13 | 53.21473 | 9.49334 | 24163 ft | 418 kts | 187° |
| 2026-05-06 16:13 | 53.18572 | 9.48769 | 24742 ft | 421 kts | 186° |
| 2026-05-06 16:14 | 53.15656 | 9.48201 | 25384 ft | 423 kts | 186° |
| 2026-05-06 16:14 | 53.12714 | 9.47629 | 26054 ft | 426 kts | 186° |
| 2026-05-06 16:14 | 53.09748 | 9.47054 | 26577 ft | 431 kts | 186° |
| 2026-05-06 16:14 | 53.06786 | 9.46480 | 27065 ft | 438 kts | 186° |
| 2026-05-06 16:15 | 53.03754 | 9.45893 | 27667 ft | 440 kts | 186° |
| 2026-05-06 16:15 | 53.00703 | 9.45303 | 28284 ft | 442 kts | 186° |
| 2026-05-06 16:15 | 52.97636 | 9.44705 | 28836 ft | 446 kts | 186° |
| 2026-05-06 16:15 | 52.94535 | 9.44060 | 29268 ft | 451 kts | 187° |
| 2026-05-06 16:16 | 52.91402 | 9.43384 | 29747 ft | 456 kts | 187° |
| 2026-05-06 16:16 | 52.88247 | 9.42694 | 30230 ft | 458 kts | 187° |
| 2026-05-06 16:16 | 52.85082 | 9.42006 | 30735 ft | 459 kts | 188° |
| 2026-05-06 16:16 | 52.81895 | 9.41315 | 31117 ft | 464 kts | 188° |
| 2026-05-06 16:17 | 52.78680 | 9.40623 | 31502 ft | 467 kts | 188° |
| 2026-05-06 16:17 | 52.75450 | 9.39934 | 31921 ft | 469 kts | 188° |
| 2026-05-06 16:17 | 52.72207 | 9.39246 | 32325 ft | 471 kts | 188° |
| 2026-05-06 16:17 | 52.68954 | 9.38558 | 32711 ft | 472 kts | 188° |
| 2026-05-06 16:18 | 52.65684 | 9.37868 | 33119 ft | 473 kts | 188° |
| 2026-05-06 16:18 | 52.62428 | 9.37182 | 33716 ft | 469 kts | 189° |
| 2026-05-06 16:18 | 52.59253 | 9.36466 | 34299 ft | 464 kts | 190° |
| 2026-05-06 16:18 | 52.56062 | 9.35647 | 34670 ft | 464 kts | 191° |
| 2026-05-06 16:19 | 52.52866 | 9.34776 | 34989 ft | 465 kts | 191° |
| 2026-05-06 16:19 | 52.49665 | 9.33895 | 35338 ft | 466 kts | 191° |
| 2026-05-06 16:19 | 52.46466 | 9.33023 | 35709 ft | 466 kts | 191° |
| 2026-05-06 16:19 | 52.43267 | 9.32165 | 36038 ft | 466 kts | 191° |
| 2026-05-06 16:20 | 52.40059 | 9.31317 | 36367 ft | 466 kts | 191° |
| 2026-05-06 16:20 | 52.36859 | 9.30480 | 36689 ft | 465 kts | 191° |
| 2026-05-06 16:20 | 52.33662 | 9.29649 | 37020 ft | 465 kts | 191° |
| 2026-05-06 16:20 | 52.30463 | 9.28817 | 37306 ft | 466 kts | 191° |
| 2026-05-06 16:21 | 52.28339 | 9.28264 | 37492 ft | 466 kts | 191° |